Time;durP1;ratioP1;P1;durP2;ratioP2;P2;SDS_P1;SDS_P2;PMS_P1;PMS_P2;Temp;Humidity;BMP_temperature;BMP_pressure;BME280_temperature;BME280_humidity;BME280_pressure;Samples;Min_cycle;Max_cycle;Signal;HPM_P1;HPM_P2
2021/12/25 00:01:30;;;;;;;17.98;13.18;;;;;;;;;;5099969;27;91416;-72
2021/12/25 00:03:57;;;;;;;22.65;14.75;;;;;;;;;;5099407;27;92455;-72
2021/12/25 00:06:24;;;;;;;20.30;14.43;;;;;;;;;;5098572;27;93767;-72
2021/12/25 00:08:51;;;;;;;23.63;14.63;;;;;;;;;;5097600;27;95419;-72
2021/12/25 00:11:17;;;;;;;20.85;14.95;;;;;;;;;;5098945;27;94131;-72
2021/12/25 00:13:44;;;;;;;24.23;15.20;;;;;;;;;;5098453;27;93522;-72
2021/12/25 00:16:10;;;;;;;21.02;14.80;;;;;;;;;;5098779;27;92529;-72
2021/12/25 00:18:38;;;;;;;18.58;13.07;;;;;;;;;;5102148;27;92410;-72
2021/12/25 00:21:05;;;;;;;18.00;13.23;;;;;;;;;;5098656;27;92283;-72
2021/12/25 00:23:31;;;;;;;17.52;11.95;;;;;;;;;;5099040;27;93504;-72
2021/12/25 00:26:06;;;;;;;20.42;13.43;;;;;;;;;;5099192;27;92943;-71
2021/12/25 00:31:20;;;;;;;14.15;10.40;;;;;;;;;;5098861;27;92771;-71
2021/12/25 00:33:55;;;;;;;18.42;14.07;;;;;;;;;;5097102;27;95835;-72
2021/12/25 00:36:22;;;;;;;17.42;12.63;;;;;;;;;;5098866;27;92396;-71
2021/12/25 00:38:49;;;;;;;19.67;14.32;;;;;;;;;;5098705;27;93287;-71
2021/12/25 00:41:17;;;;;;;19.73;14.00;;;;;;;;;;5101902;27;93117;-71
2021/12/25 00:43:43;;;;;;;17.55;13.57;;;;;;;;;;5098779;27;93925;-71
2021/12/25 00:46:10;;;;;;;18.48;14.50;;;;;;;;;;5098072;27;93508;-71
2021/12/25 00:48:37;;;;;;;16.70;13.45;;;;;;;;;;5098557;27;92288;-71
2021/12/25 00:51:04;;;;;;;17.10;13.75;;;;;;;;;;5098817;27;93573;-71
2021/12/25 00:53:31;;;;;;;18.67;14.18;;;;;;;;;;5059733;27;95995;-71
2021/12/25 00:55:57;;;;;;;17.63;14.18;;;;;;;;;;5077484;27;92336;-71
2021/12/25 00:58:24;;;;;;;18.63;13.88;;;;;;;;;;5076320;27;94680;-71
2021/12/25 01:00:51;;;;;;;15.50;12.13;;;;;;;;;;5059244;27;96147;-71
2021/12/25 01:03:19;;;;;;;13.85;11.30;;;;;;;;;;5062398;27;92581;-71
2021/12/25 01:05:46;;;;;;;16.73;12.77;;;;;;;;;;5059097;27;96519;-71
2021/12/25 01:08:15;;;;;;;13.57;12.07;;;;;;;;;;5059268;27;92433;-71
2021/12/25 01:10:42;;;;;;;14.20;12.13;;;;;;;;;;5059538;27;95200;-71
2021/12/25 01:13:15;;;;;;;13.50;11.27;;;;;;;;;;5057869;27;95261;-71
2021/12/25 01:24:15;;;;;;;12.73;11.35;;;;;;;;;;5060497;27;94982;-71
2021/12/25 01:33:02;;;;;;;12.85;10.45;;;;;;;;;;4978410;28;94759;-71
2021/12/25 01:47:44;;;;;;;16.30;12.05;;;;;;;;;;5067887;27;92586;-71
2021/12/25 01:48:14;;;;;;;15.43;12.30;;;;;;;;;;5058392;27;92923;-71
2021/12/25 01:50:41;;;;;;;13.93;10.43;;;;;;;;;;5061135;27;94600;-71
2021/12/25 01:53:07;;;;;;;18.73;12.45;;;;;;;;;;5073435;27;94778;-71
2021/12/25 01:55:34;;;;;;;18.23;12.55;;;;;;;;;;5079160;27;98326;-71
2021/12/25 01:58:02;;;;;;;19.10;13.23;;;;;;;;;;5076300;27;95778;-71
2021/12/25 02:00:35;;;;;;;17.77;12.65;;;;;;;;;;5042099;27;92477;-71
2021/12/25 02:03:03;;;;;;;16.40;12.75;;;;;;;;;;5060095;27;93484;-71
2021/12/25 02:05:30;;;;;;;17.40;13.32;;;;;;;;;;5041457;27;96021;-71
2021/12/25 02:08:18;;;;;;;18.20;13.30;;;;;;;;;;5041655;27;92514;-71
2021/12/25 02:10:45;;;;;;;16.85;13.38;;;;;;;;;;5042323;27;95047;-72
2021/12/25 02:13:12;;;;;;;18.92;14.55;;;;;;;;;;5044614;27;96449;-71
2021/12/25 02:15:44;;;;;;;20.52;14.40;;;;;;;;;;5041617;27;96124;-71
2021/12/25 02:18:18;;;;;;;19.55;14.68;;;;;;;;;;5039606;27;97426;-71
2021/12/25 02:21:25;;;;;;;23.20;15.57;;;;;;;;;;4976820;28;92278;-71
2021/12/25 02:23:51;;;;;;;21.10;15.00;;;;;;;;;;5030691;27;95859;-71
2021/12/25 02:26:18;;;;;;;22.60;15.48;;;;;;;;;;5059174;27;93549;-72
2021/12/25 02:28:45;;;;;;;23.17;15.95;;;;;;;;;;5041315;27;92521;-72
2021/12/25 02:31:12;;;;;;;21.40;15.45;;;;;;;;;;5041355;27;96307;-71
2021/12/25 02:33:39;;;;;;;22.45;15.43;;;;;;;;;;5041158;27;94765;-71
2021/12/25 02:36:07;;;;;;;26.33;15.90;;;;;;;;;;5063356;27;91543;-70
2021/12/25 02:38:34;;;;;;;23.25;16.23;;;;;;;;;;5041296;27;96127;-71
2021/12/25 02:41:00;;;;;;;19.42;13.57;;;;;;;;;;5059290;27;92404;-71
2021/12/25 02:43:27;;;;;;;24.05;15.43;;;;;;;;;;5039623;27;96115;-71
2021/12/25 02:45:55;;;;;;;22.67;15.85;;;;;;;;;;5041086;27;95057;-71
2021/12/25 02:48:23;;;;;;;24.50;15.95;;;;;;;;;;5041345;27;92432;-71
2021/12/25 02:50:49;;;;;;;24.35;16.60;;;;;;;;;;5059630;27;92396;-71
2021/12/25 02:53:17;;;;;;;21.30;14.10;;;;;;;;;;5083683;27;95999;-71
2021/12/25 02:55:44;;;;;;;25.60;17.17;;;;;;;;;;5088543;27;93651;-70
2021/12/25 02:58:13;;;;;;;23.42;16.02;;;;;;;;;;5092084;27;96909;-70
2021/12/25 03:00:46;;;;;;;27.80;17.75;;;;;;;;;;5089737;27;91461;-71
2021/12/25 03:03:12;;;;;;;27.20;17.63;;;;;;;;;;5082662;27;95240;-71
2021/12/25 03:05:39;;;;;;;25.52;17.45;;;;;;;;;;5100149;27;93607;-71
2021/12/25 03:08:06;;;;;;;26.42;17.52;;;;;;;;;;5079760;27;94787;-71
2021/12/25 03:10:43;;;;;;;25.25;15.15;;;;;;;;;;5080220;27;97997;-71
2021/12/25 03:15:49;;;;;;;28.50;16.50;;;;;;;;;;5081699;27;93047;-71
2021/12/25 03:18:20;;;;;;;27.92;17.75;;;;;;;;;;5100001;27;92718;-72
2021/12/25 03:20:47;;;;;;;25.33;16.30;;;;;;;;;;5084531;27;94682;-70
2021/12/25 03:23:16;;;;;;;26.60;16.02;;;;;;;;;;5100209;27;93999;-71
2021/12/25 03:25:43;;;;;;;27.73;15.85;;;;;;;;;;5081906;27;95724;-71
2021/12/25 03:28:10;;;;;;;23.38;14.07;;;;;;;;;;5081300;27;93365;-70
2021/12/25 03:30:39;;;;;;;30.77;17.58;;;;;;;;;;5081217;27;96057;-71
2021/12/25 03:33:07;;;;;;;23.35;15.07;;;;;;;;;;5079169;27;97921;-71
2021/12/25 03:35:34;;;;;;;25.40;15.63;;;;;;;;;;5099965;27;92245;-70
2021/12/25 03:38:01;;;;;;;26.83;17.23;;;;;;;;;;5099749;27;93641;-71
2021/12/25 03:40:28;;;;;;;27.55;15.77;;;;;;;;;;5102481;27;93112;-71
2021/12/25 03:42:55;;;;;;;30.15;17.65;;;;;;;;;;5081307;27;95870;-71
2021/12/25 03:45:23;;;;;;;23.92;15.02;;;;;;;;;;5099353;27;93351;-72
2021/12/25 03:48:02;;;;;;;24.00;14.73;;;;;;;;;;5081223;27;92470;-71
2021/12/25 03:59:00;;;;;;;21.80;14.07;;;;;;;;;;5058920;27;95981;-71
2021/12/25 04:04:18;;;;;;;21.42;13.73;;;;;;;;;;5063493;27;92921;-71
2021/12/25 04:09:41;;;;;;;21.60;14.27;;;;;;;;;;5041026;27;92652;-70
2021/12/25 04:12:10;;;;;;;17.33;11.52;;;;;;;;;;5060092;27;96158;-71
2021/12/25 04:14:38;;;;;;;19.75;12.60;;;;;;;;;;5059993;27;93501;-70
2021/12/25 04:17:06;;;;;;;13.85;9.43;;;;;;;;;;5060706;27;92016;-71
2021/12/25 04:19:35;;;;;;;18.00;12.63;;;;;;;;;;5060972;27;93932;-71
2021/12/25 04:22:05;;;;;;;15.80;10.15;;;;;;;;;;5059665;27;95726;-71
2021/12/25 04:24:38;;;;;;;16.73;10.50;;;;;;;;;;5058202;27;94756;-71
2021/12/25 04:27:08;;;;;;;29.58;12.18;;;;;;;;;;5081031;27;95630;-72
2021/12/25 04:29:44;;;;;;;17.90;11.90;;;;;;;;;;5059901;27;92370;-71
2021/12/25 05:02:28;;;;;;;17.20;9.30;;;;;;;;;;5080900;27;95759;-71
2021/12/25 05:05:17;;;;;;;13.70;8.25;;;;;;;;;;5095788;27;92482;-71
2021/12/25 05:07:58;;;;;;;12.93;7.82;;;;;;;;;;5080650;27;92320;-71
2021/12/25 05:10:24;;;;;;;15.48;7.65;;;;;;;;;;5081367;27;95001;-71
2021/12/25 05:12:51;;;;;;;8.40;5.60;;;;;;;;;;5079738;27;95540;-71
2021/12/25 05:15:17;;;;;;;8.60;6.63;;;;;;;;;;5102154;27;92241;-71
2021/12/25 05:17:44;;;;;;;6.95;5.65;;;;;;;;;;5078341;27;97573;-71
2021/12/25 05:20:11;;;;;;;8.48;4.88;;;;;;;;;;5098857;27;92282;-71
2021/12/25 05:22:37;;;;;;;6.05;4.57;;;;;;;;;;5099186;27;93372;-70
2021/12/25 05:25:04;;;;;;;5.65;4.80;;;;;;;;;;5080173;27;96039;-71
2021/12/25 05:27:33;;;;;;;4.18;3.65;;;;;;;;;;5079684;27;92485;-71
2021/12/25 05:29:59;;;;;;;7.35;4.70;;;;;;;;;;5080207;27;95448;-71
2021/12/25 05:32:48;;;;;;;5.72;3.83;;;;;;;;;;5095403;27;94604;-71
2021/12/25 05:35:33;;;;;;;4.60;3.63;;;;;;;;;;5098305;27;91674;-72
2021/12/25 05:38:13;;;;;;;4.38;3.72;;;;;;;;;;5082559;27;94991;-71
2021/12/25 05:40:46;;;;;;;7.70;3.00;;;;;;;;;;5080208;27;93812;-71
2021/12/25 05:43:14;;;;;;;5.22;3.10;;;;;;;;;;5078642;27;95334;-70
2021/12/25 05:45:42;;;;;;;4.70;3.30;;;;;;;;;;5080269;27;94669;-72
2021/12/25 05:48:12;;;;;;;2.90;2.17;;;;;;;;;;5080393;27;92270;-71
2021/12/25 05:50:50;;;;;;;2.45;2.08;;;;;;;;;;5079916;27;96355;-70
2021/12/25 05:53:26;;;;;;;3.58;2.30;;;;;;;;;;5078885;27;93458;-71
2021/12/25 05:56:11;;;;;;;2.95;1.88;;;;;;;;;;5076857;27;92372;-71
2021/12/25 05:58:56;;;;;;;2.42;1.83;;;;;;;;;;5077404;27;93327;-71
2021/12/25 06:01:40;;;;;;;3.10;2.35;;;;;;;;;;5076367;27;91681;-72
2021/12/25 06:04:08;;;;;;;3.97;2.35;;;;;;;;;;5077774;27;92468;-72
2021/12/25 06:06:35;;;;;;;3.90;2.40;;;;;;;;;;5058985;27;96954;-72
2021/12/25 06:09:04;;;;;;;3.28;2.30;;;;;;;;;;5057855;27;94778;-72
2021/12/25 06:11:31;;;;;;;1.73;1.63;;;;;;;;;;5077215;27;95657;-72
2021/12/25 06:14:08;;;;;;;2.58;2.15;;;;;;;;;;5058861;27;95166;-71
2021/12/25 06:16:45;;;;;;;2.65;2.30;;;;;;;;;;5059348;27;92294;-72
2021/12/25 06:19:27;;;;;;;4.45;2.15;;;;;;;;;;5059319;27;93895;-72
2021/12/25 06:22:14;;;;;;;2.33;2.00;;;;;;;;;;5079791;27;94316;-71
2021/12/25 06:25:05;;;;;;;2.22;2.00;;;;;;;;;;5059307;27;94625;-71
2021/12/25 06:27:55;;;;;;;1.67;1.58;;;;;;;;;;5038301;27;92156;-72
2021/12/25 06:30:33;;;;;;;2.58;2.00;;;;;;;;;;5059187;27;92355;-72
2021/12/25 06:33:18;;;;;;;2.50;2.25;;;;;;;;;;5075623;27;92366;-72
2021/12/25 06:35:47;;;;;;;2.05;1.95;;;;;;;;;;5074163;27;95793;-71
2021/12/25 06:38:23;;;;;;;5.72;2.45;;;;;;;;;;5058866;27;92395;-71
2021/12/25 06:41:01;;;;;;;3.15;2.40;;;;;;;;;;5058848;27;95407;-71
2021/12/25 06:43:29;;;;;;;3.80;2.20;;;;;;;;;;5058774;27;94545;-72
2021/12/25 06:45:57;;;;;;;5.47;2.53;;;;;;;;;;5064398;27;92284;-71
2021/12/25 06:48:26;;;;;;;2.97;2.40;;;;;;;;;;5062353;27;95135;-72
2021/12/25 06:51:11;;;;;;;2.78;1.60;;;;;;;;;;5080557;27;92305;-72
2021/12/25 06:53:56;;;;;;;3.28;1.80;;;;;;;;;;5101793;27;92609;-72
2021/12/25 06:56:31;;;;;;;1.95;1.70;;;;;;;;;;5082386;27;95575;-71
2021/12/25 06:59:15;;;;;;;2.58;1.80;;;;;;;;;;5082249;27;92381;-71
2021/12/25 07:01:45;;;;;;;1.52;1.42;;;;;;;;;;5081020;27;95885;-72
2021/12/25 07:04:31;;;;;;;1.73;1.58;;;;;;;;;;5100637;27;94448;-72
2021/12/25 07:07:17;;;;;;;2.15;1.70;;;;;;;;;;5101493;27;92287;-71
2021/12/25 07:10:03;;;;;;;1.70;1.60;;;;;;;;;;5109815;27;92361;-72
2021/12/25 07:12:46;;;;;;;1.35;1.25;;;;;;;;;;5087687;27;92381;-71
2021/12/25 07:15:33;;;;;;;2.65;1.70;;;;;;;;;;5106979;27;94483;-71
2021/12/25 07:18:32;;;;;;;2.65;1.70;;;;;;;;;;5076547;27;94287;-72
2021/12/25 07:21:17;;;;;;;1.92;1.45;;;;;;;;;;5099520;27;91656;-72
2021/12/25 07:24:11;;;;;;;3.08;1.73;;;;;;;;;;5091980;27;92755;-72
2021/12/25 07:26:46;;;;;;;3.33;1.98;;;;;;;;;;5082031;27;96052;-75
2021/12/25 07:29:32;;;;;;;2.40;1.90;;;;;;;;;;5099194;27;94688;-73
2021/12/25 07:31:58;;;;;;;2.28;1.63;;;;;;;;;;5100771;27;95833;-74
2021/12/25 07:34:25;;;;;;;3.08;1.98;;;;;;;;;;5103624;27;93649;-74
2021/12/25 07:36:51;;;;;;;3.40;1.75;;;;;;;;;;5100506;27;93620;-74
2021/12/25 07:39:18;;;;;;;7.47;1.92;;;;;;;;;;5100380;27;93537;-71
2021/12/25 07:41:44;;;;;;;1.65;1.55;;;;;;;;;;5100517;27;92430;-72
2021/12/25 07:44:23;;;;;;;2.20;2.00;;;;;;;;;;5081995;27;94662;-72
2021/12/25 07:46:51;;;;;;;1.83;1.73;;;;;;;;;;5100769;27;92655;-71
2021/12/25 07:49:20;;;;;;;2.95;1.88;;;;;;;;;;5099992;27;92388;-72
2021/12/25 07:51:47;;;;;;;2.45;1.90;;;;;;;;;;5076837;27;93283;-72
2021/12/25 07:54:13;;;;;;;6.13;1.98;;;;;;;;;;5077788;27;95981;-71
2021/12/25 07:56:40;;;;;;;1.88;1.40;;;;;;;;;;5081595;27;92424;-71
2021/12/25 07:59:06;;;;;;;2.45;1.48;;;;;;;;;;5087540;27;92989;-70
2021/12/25 08:01:35;;;;;;;4.38;1.90;;;;;;;;;;5099999;27;92285;-70
2021/12/25 08:04:02;;;;;;;3.20;1.77;;;;;;;;;;5099673;27;93382;-72
2021/12/25 08:06:30;;;;;;;3.00;1.98;;;;;;;;;;5099325;27;93652;-71
2021/12/25 08:09:00;;;;;;;2.47;2.28;;;;;;;;;;5099756;27;92326;-71
2021/12/25 08:11:26;;;;;;;2.03;1.70;;;;;;;;;;5100550;27;93383;-71
2021/12/25 08:13:53;;;;;;;1.98;1.50;;;;;;;;;;5080607;27;96672;-71
2021/12/25 08:16:20;;;;;;;3.13;2.25;;;;;;;;;;5103164;27;92288;-71
2021/12/25 08:18:46;;;;;;;3.85;1.77;;;;;;;;;;5097420;27;95571;-71
2021/12/25 08:21:31;;;;;;;4.63;1.98;;;;;;;;;;5088441;27;92383;-70
2021/12/25 08:24:17;;;;;;;3.58;2.25;;;;;;;;;;5075977;27;92878;-70
2021/12/25 08:27:19;;;;;;;6.65;2.50;;;;;;;;;;4995381;28;92857;-72
2021/12/25 08:30:10;;;;;;;3.00;2.05;;;;;;;;;;5041171;27;93895;-72
2021/12/25 08:33:03;;;;;;;1.80;1.70;;;;;;;;;;5074373;27;92522;-72
2021/12/25 08:35:48;;;;;;;2.13;1.90;;;;;;;;;;5076348;27;93066;-71
2021/12/25 08:38:14;;;;;;;2.53;2.33;;;;;;;;;;5079348;27;91551;-71
2021/12/25 08:40:42;;;;;;;2.95;2.00;;;;;;;;;;5082066;27;92305;-71
2021/12/25 08:43:08;;;;;;;3.75;2.25;;;;;;;;;;5078708;27;93273;-72
2021/12/25 08:45:46;;;;;;;7.38;2.05;;;;;;;;;;5077246;27;94710;-72
2021/12/25 08:48:20;;;;;;;2.88;2.50;;;;;;;;;;5078719;27;93677;-71
2021/12/25 08:50:50;;;;;;;4.88;2.30;;;;;;;;;;5078837;27;92383;-72
2021/12/25 08:53:18;;;;;;;3.60;2.17;;;;;;;;;;5095863;27;93745;-72
2021/12/25 08:55:46;;;;;;;3.60;2.20;;;;;;;;;;5098358;27;93690;-71
2021/12/25 08:58:12;;;;;;;3.00;1.75;;;;;;;;;;5099345;27;92758;-71
2021/12/25 09:00:38;;;;;;;4.13;1.90;;;;;;;;;;5098976;27;93446;-72
2021/12/25 09:03:05;;;;;;;5.32;1.70;;;;;;;;;;5101950;27;92547;-71
2021/12/25 09:05:32;;;;;;;1.80;1.55;;;;;;;;;;5098486;27;93501;-71
2021/12/25 09:07:59;;;;;;;3.00;1.95;;;;;;;;;;5098280;27;93642;-70
2021/12/25 09:10:28;;;;;;;2.63;1.42;;;;;;;;;;5097099;27;94755;-71
2021/12/25 09:12:57;;;;;;;2.92;1.95;;;;;;;;;;5098480;27;95790;-72
2021/12/25 09:15:24;;;;;;;1.48;1.38;;;;;;;;;;5098595;27;93238;-73
2021/12/25 09:17:51;;;;;;;1.48;1.35;;;;;;;;;;5098633;27;92339;-71
2021/12/25 09:20:19;;;;;;;1.73;1.63;;;;;;;;;;5098772;27;93435;-71
2021/12/25 09:22:45;;;;;;;1.80;1.40;;;;;;;;;;5098402;27;92840;-71
2021/12/25 09:25:12;;;;;;;2.25;1.00;;;;;;;;;;5099857;27;92395;-71
2021/12/25 09:27:38;;;;;;;1.35;1.20;;;;;;;;;;5099115;27;92888;-71
2021/12/25 09:30:05;;;;;;;1.27;1.17;;;;;;;;;;5098542;27;92868;-71
2021/12/25 09:32:32;;;;;;;3.28;1.33;;;;;;;;;;5098544;27;93300;-71
2021/12/25 09:35:00;;;;;;;1.50;1.40;;;;;;;;;;5096926;27;96635;-70
2021/12/25 09:37:27;;;;;;;1.38;1.27;;;;;;;;;;5098443;27;93065;-71
2021/12/25 09:39:54;;;;;;;2.22;1.08;;;;;;;;;;5098666;27;93205;-71
2021/12/25 09:42:23;;;;;;;0.80;0.80;;;;;;;;;;5098302;27;93478;-71
2021/12/25 09:44:51;;;;;;;1.60;1.13;;;;;;;;;;5098275;27;92191;-71
2021/12/25 09:47:17;;;;;;;1.10;1.05;;;;;;;;;;5101618;27;92800;-71
2021/12/25 09:49:43;;;;;;;0.90;0.90;;;;;;;;;;5098439;27;92393;-71
2021/12/25 09:52:10;;;;;;;1.38;0.90;;;;;;;;;;5090767;27;93446;-71
2021/12/25 09:54:36;;;;;;;2.08;1.20;;;;;;;;;;5077895;27;93665;-70
2021/12/25 09:57:02;;;;;;;1.60;1.00;;;;;;;;;;5078096;27;92230;-70
2021/12/25 09:59:29;;;;;;;1.83;1.00;;;;;;;;;;5076190;27;94730;-74
2021/12/25 10:01:56;;;;;;;1.45;1.02;;;;;;;;;;5077617;27;93713;-71
2021/12/25 10:04:32;;;;;;;0.80;0.80;;;;;;;;;;5077845;27;92294;-71
2021/12/25 10:07:10;;;;;;;2.15;1.00;;;;;;;;;;5080859;27;92759;-71
2021/12/25 10:09:37;;;;;;;1.80;1.27;;;;;;;;;;5077583;27;92229;-73
2021/12/25 10:12:09;;;;;;;1.98;0.93;;;;;;;;;;5077618;27;94030;-75
2021/12/25 10:14:36;;;;;;;1.05;0.93;;;;;;;;;;5077220;27;93533;-75
2021/12/25 10:17:12;;;;;;;0.52;0.52;;;;;;;;;;5077974;27;91649;-73
2021/12/25 10:19:41;;;;;;;1.23;1.05;;;;;;;;;;5077815;27;92110;-74
2021/12/25 10:22:10;;;;;;;0.73;0.73;;;;;;;;;;5081174;27;93879;-75
2021/12/25 10:24:48;;;;;;;0.93;0.93;;;;;;;;;;5079371;27;94746;-74
2021/12/25 10:27:17;;;;;;;1.08;0.98;;;;;;;;;;5080891;27;95864;-75
2021/12/25 10:29:44;;;;;;;0.82;0.82;;;;;;;;;;5084055;27;93558;-75
2021/12/25 10:32:17;;;;;;;0.50;0.50;;;;;;;;;;5081387;27;93428;-73
2021/12/25 10:34:44;;;;;;;1.35;0.85;;;;;;;;;;5080650;27;93125;-72
2021/12/25 10:37:11;;;;;;;0.73;0.73;;;;;;;;;;5081048;27;92325;-70
2021/12/25 10:39:38;;;;;;;0.93;0.93;;;;;;;;;;5080887;27;92426;-71
2021/12/25 10:42:11;;;;;;;1.10;0.70;;;;;;;;;;5081066;27;92741;-72
2021/12/25 10:44:39;;;;;;;0.65;0.65;;;;;;;;;;5081091;27;92329;-72
2021/12/25 10:47:10;;;;;;;2.42;0.80;;;;;;;;;;5080708;27;93539;-75
2021/12/25 10:49:41;;;;;;;5.45;1.00;;;;;;;;;;5078872;27;95416;-72
2021/12/25 10:52:30;;;;;;;0.80;0.73;;;;;;;;;;5091876;27;92297;-72
2021/12/25 10:54:58;;;;;;;2.38;0.80;;;;;;;;;;5101743;27;93183;-72
2021/12/25 10:57:39;;;;;;;1.55;0.70;;;;;;;;;;5108604;27;92217;-72
2021/12/25 11:00:08;;;;;;;2.38;0.80;;;;;;;;;;5107790;27;93063;-73
2021/12/25 11:02:40;;;;;;;1.35;0.73;;;;;;;;;;5107990;27;93276;-72
2021/12/25 11:05:20;;;;;;;1.10;1.00;;;;;;;;;;5104767;27;92355;-72
2021/12/25 11:07:48;;;;;;;0.77;0.70;;;;;;;;;;5101960;27;93419;-71
2021/12/25 11:10:16;;;;;;;0.75;0.73;;;;;;;;;;5100574;27;93808;-72
2021/12/25 11:12:42;;;;;;;0.60;0.60;;;;;;;;;;5097739;27;92394;-71
2021/12/25 11:15:09;;;;;;;0.80;0.68;;;;;;;;;;5061406;27;94781;-71
2021/12/25 11:17:38;;;;;;;1.60;0.90;;;;;;;;;;5059942;27;92880;-72
2021/12/25 11:20:05;;;;;;;1.02;0.90;;;;;;;;;;5059953;27;93376;-71
2021/12/25 11:22:45;;;;;;;0.95;0.95;;;;;;;;;;5059545;27;93650;-72
2021/12/25 11:25:12;;;;;;;1.80;1.00;;;;;;;;;;5059591;27;92446;-71
2021/12/25 11:27:38;;;;;;;0.80;0.80;;;;;;;;;;5059686;27;93317;-72
2021/12/25 11:30:05;;;;;;;1.10;0.90;;;;;;;;;;5059561;27;93211;-73
2021/12/25 11:32:32;;;;;;;1.45;0.90;;;;;;;;;;5059086;27;91394;-72
2021/12/25 11:34:59;;;;;;;6.10;1.15;;;;;;;;;;5059800;27;93063;-71
2021/12/25 11:37:25;;;;;;;0.70;0.70;;;;;;;;;;5062319;27;93272;-74
2021/12/25 11:39:53;;;;;;;0.50;0.50;;;;;;;;;;5057885;27;95056;-71
2021/12/25 11:42:20;;;;;;;0.88;0.85;;;;;;;;;;5059059;27;93810;-70
2021/12/25 11:44:55;;;;;;;0.95;0.90;;;;;;;;;;5042479;27;92387;-70
2021/12/25 11:47:31;;;;;;;2.75;1.17;;;;;;;;;;5038833;27;93404;-71
2021/12/25 11:49:59;;;;;;;1.73;0.60;;;;;;;;;;5038252;28;92670;-72
2021/12/25 11:52:35;;;;;;;3.50;1.40;;;;;;;;;;5049736;27;92311;-72
2021/12/25 11:55:30;;;;;;;1.38;0.75;;;;;;;;;;5059219;27;93117;-71
2021/12/25 11:58:17;;;;;;;1.88;0.95;;;;;;;;;;5059721;27;92792;-71
2021/12/25 12:00:49;;;;;;;1.50;1.20;;;;;;;;;;5062444;27;93074;-75
2021/12/25 12:03:34;;;;;;;1.20;0.85;;;;;;;;;;5058018;27;92702;-74
2021/12/25 12:06:00;;;;;;;1.35;1.10;;;;;;;;;;5057463;27;94951;-72
2021/12/25 12:08:27;;;;;;;1.90;0.98;;;;;;;;;;5059053;27;95633;-72
2021/12/25 12:11:20;;;;;;;1.42;1.30;;;;;;;;;;5058164;27;93712;-71
2021/12/25 12:14:17;;;;;;;5.68;1.00;;;;;;;;;;5084956;27;92263;-72
2021/12/25 12:17:04;;;;;;;1.27;0.95;;;;;;;;;;5099847;27;92514;-69
2021/12/25 12:19:42;;;;;;;1.42;1.30;;;;;;;;;;5081057;27;94107;-75
2021/12/25 12:22:21;;;;;;;1.30;1.10;;;;;;;;;;5102908;27;93332;-71
2021/12/25 12:27:38;;;;;;;4.80;1.60;;;;;;;;;;5096207;27;92422;-71
2021/12/25 12:30:06;;;;;;;1.65;1.33;;;;;;;;;;5099912;27;92975;-71
2021/12/25 12:32:37;;;;;;;4.80;1.20;;;;;;;;;;5097861;27;95916;-70
2021/12/25 12:35:23;;;;;;;2.25;1.38;;;;;;;;;;5081326;27;92346;-70
2021/12/25 12:37:51;;;;;;;2.17;1.60;;;;;;;;;;5098909;27;92506;-71
2021/12/25 12:40:18;;;;;;;4.60;1.63;;;;;;;;;;5099012;27;92576;-69
2021/12/25 12:42:47;;;;;;;5.25;1.50;;;;;;;;;;5099434;27;92271;-71
2021/12/25 12:45:16;;;;;;;5.30;1.70;;;;;;;;;;5102440;27;93262;-71
2021/12/25 12:48:16;;;;;;;2.75;2.00;;;;;;;;;;5099272;27;92341;-70
2021/12/25 12:50:47;;;;;;;5.53;1.30;;;;;;;;;;5043621;27;93484;-70
2021/12/25 12:53:14;;;;;;;4.70;1.63;;;;;;;;;;5081694;27;93355;-70
2021/12/25 12:55:42;;;;;;;2.90;1.17;;;;;;;;;;5078962;27;92239;-70
2021/12/25 12:58:13;;;;;;;1.55;1.33;;;;;;;;;;5077333;27;94536;-71
2021/12/25 13:00:41;;;;;;;3.58;1.50;;;;;;;;;;5078222;27;93848;-70
2021/12/25 13:03:07;;;;;;;5.15;2.55;;;;;;;;;;5078171;27;92326;-70
2021/12/25 13:05:37;;;;;;;3.22;1.60;;;;;;;;;;5078487;27;93403;-70
2021/12/25 13:08:14;;;;;;;3.53;1.52;;;;;;;;;;5081461;27;93605;-70
2021/12/25 13:10:50;;;;;;;2.75;2.10;;;;;;;;;;5078652;27;92843;-70
2021/12/25 13:13:36;;;;;;;3.95;2.13;;;;;;;;;;5059418;27;96338;-72
2021/12/25 13:16:04;;;;;;;1.00;1.00;;;;;;;;;;5078885;27;91712;-70
2021/12/25 13:18:36;;;;;;;2.80;1.85;;;;;;;;;;5078137;27;92310;-70
2021/12/25 13:21:08;;;;;;;5.70;2.97;;;;;;;;;;5078150;27;93671;-71
2021/12/25 13:23:36;;;;;;;3.25;2.17;;;;;;;;;;5071440;27;94754;-73
2021/12/25 13:26:05;;;;;;;3.58;1.67;;;;;;;;;;5068491;27;95990;-71
2021/12/25 13:28:35;;;;;;;3.55;3.10;;;;;;;;;;5066507;27;93661;-73
2021/12/25 13:31:03;;;;;;;6.32;4.05;;;;;;;;;;5061140;27;92231;-71
2021/12/25 13:33:31;;;;;;;12.95;7.60;;;;;;;;;;5056493;27;94275;-71
2021/12/25 13:35:59;;;;;;;2.10;1.23;;;;;;;;;;5078071;27;92308;-71
2021/12/25 13:38:26;;;;;;;6.47;4.53;;;;;;;;;;5077912;27;92428;-72
2021/12/25 13:40:54;;;;;;;4.88;3.60;;;;;;;;;;5070308;27;93199;-71
2021/12/25 13:43:21;;;;;;;2.22;1.77;;;;;;;;;;5057436;27;92316;-69
2021/12/25 13:45:54;;;;;;;6.53;4.60;;;;;;;;;;5057522;27;93396;-70
2021/12/25 13:48:21;;;;;;;7.38;5.43;;;;;;;;;;5055548;27;96070;-70
2021/12/25 13:50:50;;;;;;;2.42;1.80;;;;;;;;;;5056865;27;92440;-72
2021/12/25 13:53:19;;;;;;;5.85;1.75;;;;;;;;;;5095896;27;92899;-71
2021/12/25 13:55:47;;;;;;;4.53;2.55;;;;;;;;;;5100440;27;92200;-70
2021/12/25 13:58:17;;;;;;;2.75;2.17;;;;;;;;;;5091986;27;93488;-72
2021/12/25 14:00:46;;;;;;;4.50;1.63;;;;;;;;;;5081299;27;93409;-70
2021/12/25 14:03:14;;;;;;;9.60;4.22;;;;;;;;;;5081383;27;92348;-70
2021/12/25 14:05:43;;;;;;;3.83;3.42;;;;;;;;;;5081576;27;92679;-73
2021/12/25 14:08:10;;;;;;;0.90;0.90;;;;;;;;;;5081270;27;93187;-70
2021/12/25 14:10:38;;;;;;;14.07;6.10;;;;;;;;;;5081037;27;92349;-72
2021/12/25 14:13:09;;;;;;;7.35;4.38;;;;;;;;;;5061359;27;94759;-71
2021/12/25 14:15:40;;;;;;;4.63;2.85;;;;;;;;;;5084241;27;93051;-71
2021/12/25 14:18:07;;;;;;;16.00;6.35;;;;;;;;;;5081316;27;92818;-71
2021/12/25 14:20:35;;;;;;;11.05;5.30;;;;;;;;;;5081029;27;93367;-71
2021/12/25 14:23:09;;;;;;;15.95;5.70;;;;;;;;;;5080904;27;92174;-70
2021/12/25 14:25:37;;;;;;;13.10;5.95;;;;;;;;;;5081180;27;93657;-70
2021/12/25 14:28:05;;;;;;;34.95;12.85;;;;;;;;;;5080816;27;93650;-69
2021/12/25 14:30:33;;;;;;;25.25;8.57;;;;;;;;;;5062348;27;92225;-75
2021/12/25 14:33:00;;;;;;;22.55;9.05;;;;;;;;;;5065561;27;92424;-70
2021/12/25 14:35:26;;;;;;;10.55;3.30;;;;;;;;;;5063331;27;93536;-72
2021/12/25 14:37:57;;;;;;;3.55;2.72;;;;;;;;;;5058238;27;94771;-71
2021/12/25 14:40:28;;;;;;;9.27;3.72;;;;;;;;;;5042362;27;93310;-73
2021/12/25 14:43:00;;;;;;;8.87;3.47;;;;;;;;;;5061884;27;92255;-71
2021/12/25 14:45:26;;;;;;;;;;;;;;;;;;5068552;27;93417;-72
2021/12/25 14:47:57;;;;;;;7.88;3.72;;;;;;;;;;5065231;27;122063;-73
2021/12/25 14:50:27;;;;;;;;;;;;;;;;;;5067157;27;92259;-72
2021/12/25 14:53:01;;;;;;;3.05;2.30;;;;;;;;;;5071248;27;122249;-70
2021/12/25 14:55:32;;;;;;;4.90;2.97;;;;;;;;;;5106505;27;92866;-73
2021/12/25 14:58:05;;;;;;;4.15;2.50;;;;;;;;;;5106135;27;92158;-72
2021/12/25 15:00:34;;;;;;;2.90;2.33;;;;;;;;;;5101086;27;93679;-72
2021/12/25 15:03:11;;;;;;;4.07;2.20;;;;;;;;;;5088208;27;94671;-71
2021/12/25 15:05:39;;;;;;;4.95;2.58;;;;;;;;;;5077022;27;95141;-71
2021/12/25 15:08:18;;;;;;;5.38;2.38;;;;;;;;;;5059363;27;93822;-71
2021/12/25 15:10:45;;;;;;;10.35;4.63;;;;;;;;;;5059631;27;92323;-71
2021/12/25 15:13:12;;;;;;;19.25;10.95;;;;;;;;;;5059414;27;93422;-69
2021/12/25 15:15:46;;;;;;;13.05;7.47;;;;;;;;;;5058056;27;93010;-70
2021/12/25 15:18:31;;;;;;;5.25;4.10;;;;;;;;;;5042043;27;92379;-71
2021/12/25 15:21:15;;;;;;;10.20;5.20;;;;;;;;;;5062843;27;93368;-71
2021/12/25 15:23:42;;;;;;;16.35;10.05;;;;;;;;;;5041396;27;93453;-70
2021/12/25 15:26:14;;;;;;;11.43;6.18;;;;;;;;;;5058324;27;93087;-71
2021/12/25 15:28:43;;;;;;;20.50;11.88;;;;;;;;;;5039739;27;96702;-70
2021/12/25 15:31:18;;;;;;;9.00;5.85;;;;;;;;;;5078316;27;92548;-72
2021/12/25 15:33:46;;;;;;;18.75;9.50;;;;;;;;;;5059609;27;93867;-71
2021/12/25 15:36:14;;;;;;;13.98;9.25;;;;;;;;;;5057971;27;94532;-70
2021/12/25 15:38:41;;;;;;;2.58;2.20;;;;;;;;;;5059170;27;93377;-71
2021/12/25 15:41:07;;;;;;;10.45;5.65;;;;;;;;;;5059309;27;93896;-71
2021/12/25 15:43:34;;;;;;;10.95;6.13;;;;;;;;;;5063320;27;93931;-73
2021/12/25 15:46:03;;;;;;;12.85;7.25;;;;;;;;;;5061893;27;93657;-71
2021/12/25 15:48:31;;;;;;;7.18;4.50;;;;;;;;;;5059167;27;92948;-73
2021/12/25 15:50:57;;;;;;;11.00;6.60;;;;;;;;;;5059113;27;92693;-72
2021/12/25 15:53:23;;;;;;;2.65;2.45;;;;;;;;;;5094774;27;94704;-72
2021/12/25 15:55:50;;;;;;;7.40;5.03;;;;;;;;;;5099977;27;93578;-73
2021/12/25 15:58:19;;;;;;;9.23;5.93;;;;;;;;;;5100412;27;92342;-73
2021/12/25 16:00:46;;;;;;;4.93;4.20;;;;;;;;;;5099969;27;93402;-72
2021/12/25 16:03:14;;;;;;;4.63;2.90;;;;;;;;;;5081322;27;96211;-72
2021/12/25 16:05:41;;;;;;;13.65;8.90;;;;;;;;;;5084470;27;92470;-72
2021/12/25 16:08:07;;;;;;;25.77;15.40;;;;;;;;;;5099791;27;92695;-72
2021/12/25 16:10:34;;;;;;;16.80;10.90;;;;;;;;;;5089256;27;91378;-72
2021/12/25 16:13:01;;;;;;;16.35;8.20;;;;;;;;;;5078466;27;92272;-72
2021/12/25 16:15:27;;;;;;;5.00;4.43;;;;;;;;;;5079048;27;93415;-73
2021/12/25 16:17:57;;;;;;;15.57;9.68;;;;;;;;;;5077053;27;94799;-70